Time;durP1;ratioP1;P1;durP2;ratioP2;P2;SDS_P1;SDS_P2;PMS_P1;PMS_P2;Temp;Humidity;BMP_temperature;BMP_pressure;BME280_temperature;BME280_humidity;BME280_pressure;Samples;Min_cycle;Max_cycle;Signal;HPM_P1;HPM_P2
2022/01/30 00:00:35;;;;;;;21.70;3.38;;;6.20;99.90;;;;;;5093199;28;20074;-55
2022/01/30 00:03:00;;;;;;;21.92;3.15;;;6.00;99.90;;;;;;5088293;28;20040;-53
2022/01/30 00:05:27;;;;;;;16.63;2.53;;;6.00;99.90;;;;;;5088831;28;20043;-52
2022/01/30 00:07:53;;;;;;;12.85;2.47;;;6.00;99.90;;;;;;5091952;28;20052;-53
2022/01/30 00:10:19;;;;;;;17.27;2.90;;;6.00;99.90;;;;;;5093047;28;20036;-54
2022/01/30 00:12:50;;;;;;;21.75;2.70;;;6.00;99.90;;;;;;5093022;28;20099;-55
2022/01/30 00:15:17;;;;;;;15.30;2.63;;;6.00;99.90;;;;;;5073606;28;20115;-54
2022/01/30 00:17:50;;;;;;;21.42;2.97;;;6.00;99.90;;;;;;5092876;28;20047;-53
2022/01/30 00:20:22;;;;;;;26.27;3.65;;;5.90;99.90;;;;;;5091244;28;20047;-53
2022/01/30 00:25:25;;;;;;;23.55;3.63;;;6.00;99.90;;;;;;5092103;28;20394;-53
2022/01/30 00:28:14;;;;;;;21.10;3.35;;;6.00;99.90;;;;;;5070317;28;20456;-55
2022/01/30 00:30:36;;;;;;;29.52;3.67;;;6.00;99.90;;;;;;5092066;28;20116;-51
2022/01/30 00:33:03;;;;;;;21.25;3.50;;;5.90;99.90;;;;;;5090514;28;20531;-53
2022/01/30 00:35:29;;;;;;;14.65;2.58;;;5.90;99.90;;;;;;5090998;28;20036;-55
2022/01/30 00:37:55;;;;;;;17.95;3.22;;;5.80;99.90;;;;;;5092176;28;20084;-51
2022/01/30 00:40:21;;;;;;;19.17;2.88;;;5.80;99.90;;;;;;5092201;28;20067;-54
2022/01/30 00:42:46;;;;;;;18.73;2.85;;;5.80;99.90;;;;;;5091845;28;20391;-50
2022/01/30 00:45:12;;;;;;;17.08;2.88;;;5.70;99.90;;;;;;5091942;28;20119;-53
2022/01/30 00:47:38;;;;;;;17.70;3.15;;;5.80;99.90;;;;;;5091673;28;20044;-54
2022/01/30 00:50:04;;;;;;;23.75;3.50;;;5.60;99.90;;;;;;5091329;28;20036;-54
2022/01/30 00:52:30;;;;;;;24.23;3.22;;;5.60;99.90;;;;;;5091822;28;20040;-52
2022/01/30 00:54:56;;;;;;;18.73;3.03;;;5.60;99.90;;;;;;5091680;28;20127;-54
2022/01/30 00:57:21;;;;;;;24.73;3.88;;;5.70;99.90;;;;;;5091267;28;20032;-52
2022/01/30 00:59:49;;;;;;;24.95;3.60;;;5.70;99.90;;;;;;5073680;28;20036;-55
2022/01/30 01:02:15;;;;;;;17.77;3.08;;;5.80;99.90;;;;;;5091222;28;20040;-54
2022/01/30 01:04:41;;;;;;;20.85;3.35;;;5.80;99.90;;;;;;5091727;28;20050;-54
2022/01/30 01:07:12;;;;;;;18.95;3.40;;;5.90;99.90;;;;;;5091859;28;20130;-55
2022/01/30 01:09:40;;;;;;;25.02;4.95;;;5.90;99.90;;;;;;5089932;28;20495;-53
2022/01/30 01:25:36;;;;;;;21.23;3.40;;;5.80;99.90;;;;;;5091194;28;20094;-53
2022/01/30 01:28:01;;;;;;;15.63;2.70;;;5.70;99.90;;;;;;5090887;28;20048;-53
2022/01/30 01:30:27;;;;;;;18.65;2.83;;;5.70;99.90;;;;;;5091091;28;20123;-53
2022/01/30 01:32:53;;;;;;;16.92;3.25;;;5.70;99.90;;;;;;5091065;28;20556;-54
2022/01/30 01:35:19;;;;;;;20.30;2.92;;;5.70;99.90;;;;;;5091161;28;20479;-52
2022/01/30 01:37:51;;;;;;;19.27;3.03;;;5.60;99.90;;;;;;5090972;28;20036;-54
2022/01/30 01:40:17;;;;;;;15.02;2.75;;;5.60;99.90;;;;;;5091437;28;20089;-55
2022/01/30 01:42:44;;;;;;;16.20;2.70;;;5.60;99.90;;;;;;5091338;28;20437;-53
2022/01/30 01:45:10;;;;;;;17.42;2.40;;;5.50;99.90;;;;;;5091233;28;20493;-53
2022/01/30 01:47:36;;;;;;;17.60;2.88;;;5.50;99.90;;;;;;5091293;28;20040;-53
2022/01/30 01:50:02;;;;;;;13.93;2.58;;;5.50;99.90;;;;;;5090927;28;20509;-56
2022/01/30 01:52:28;;;;;;;19.38;3.03;;;5.50;99.90;;;;;;5090946;28;20062;-53
2022/01/30 01:54:59;;;;;;;17.33;2.60;;;5.40;99.90;;;;;;5091173;28;20085;-53
2022/01/30 01:57:26;;;;;;;19.05;3.15;;;5.40;99.90;;;;;;5089932;28;20499;-53
2022/01/30 01:59:53;;;;;;;18.63;3.28;;;5.40;99.90;;;;;;5091249;28;20039;-52
2022/01/30 02:02:20;;;;;;;16.35;3.55;;;5.30;99.90;;;;;;5090579;28;20457;-51
2022/01/30 02:04:46;;;;;;;20.92;4.00;;;5.40;99.90;;;;;;5090687;28;20411;-52
2022/01/30 02:09:54;;;;;;;22.63;3.42;;;5.30;99.90;;;;;;5094796;28;20141;-51
2022/01/30 02:12:27;;;;;;;20.42;3.58;;;5.30;99.90;;;;;;5092906;28;20360;-55
2022/01/30 02:25:57;;;;;;;20.85;3.10;;;5.50;99.90;;;;;;5094683;28;20050;-53
2022/01/30 02:28:24;;;;;;;17.55;3.05;;;5.50;99.90;;;;;;5093204;28;20044;-53
2022/01/30 02:31:12;;;;;;;26.48;3.25;;;5.50;99.90;;;;;;5094587;28;20044;-51
2022/01/30 02:33:39;;;;;;;16.27;2.90;;;5.40;99.90;;;;;;5093875;28;20097;-55
2022/01/30 02:36:05;;;;;;;19.30;3.30;;;5.50;99.90;;;;;;5094410;28;20463;-56
2022/01/30 02:38:31;;;;;;;22.27;3.97;;;5.60;99.90;;;;;;5094645;28;20062;-54
2022/01/30 02:40:58;;;;;;;14.15;2.78;;;5.60;99.90;;;;;;5076370;28;20075;-55
2022/01/30 02:43:31;;;;;;;23.33;3.25;;;5.70;99.90;;;;;;5094322;28;20044;-54
2022/01/30 02:48:33;;;;;;;28.90;3.92;;;5.70;99.90;;;;;;5094197;28;20044;-54
2022/01/30 02:51:11;;;;;;;23.00;4.07;;;5.70;99.90;;;;;;5075875;28;20047;-53
2022/01/30 02:53:41;;;;;;;23.55;3.40;;;5.70;99.90;;;;;;5076367;28;20463;-54
2022/01/30 02:56:07;;;;;;;23.40;4.28;;;5.60;99.90;;;;;;5076241;28;20482;-53
2022/01/30 02:58:33;;;;;;;21.42;3.03;;;5.60;99.90;;;;;;5094292;28;20043;-53
2022/01/30 03:00:59;;;;;;;23.27;4.43;;;5.50;99.90;;;;;;5094261;28;20425;-52
2022/01/30 03:03:25;;;;;;;20.45;3.53;;;5.50;99.90;;;;;;5093254;28;20059;-50
2022/01/30 03:05:50;;;;;;;19.25;3.50;;;5.50;99.90;;;;;;5094416;28;20028;-56
2022/01/30 03:08:16;;;;;;;20.63;2.92;;;5.50;99.90;;;;;;5093862;28;20113;-50
2022/01/30 03:10:42;;;;;;;22.15;3.30;;;5.40;99.90;;;;;;5093730;28;20063;-54
2022/01/30 03:13:07;;;;;;;16.02;2.50;;;5.40;99.90;;;;;;5075095;28;20040;-52
2022/01/30 03:15:34;;;;;;;18.00;3.22;;;5.40;99.90;;;;;;5093945;28;20040;-54
2022/01/30 03:18:01;;;;;;;14.50;3.08;;;5.40;99.90;;;;;;5093164;28;20062;-54
2022/01/30 03:20:26;;;;;;;17.05;2.92;;;5.40;99.90;;;;;;5093164;28;20044;-53
2022/01/30 03:22:52;;;;;;;22.00;3.58;;;5.40;99.90;;;;;;5092797;28;20517;-54
2022/01/30 03:25:18;;;;;;;23.58;3.85;;;5.40;99.90;;;;;;5093866;28;20046;-53
2022/01/30 03:27:50;;;;;;;17.55;2.80;;;5.40;99.90;;;;;;5093492;28;20463;-55
2022/01/30 03:30:24;;;;;;;19.15;3.10;;;5.40;99.90;;;;;;5093651;28;20043;-55
2022/01/30 03:32:49;;;;;;;16.63;2.47;;;5.40;99.90;;;;;;5074908;28;20036;-52
2022/01/30 03:35:15;;;;;;;18.58;2.80;;;5.40;99.90;;;;;;5093692;28;20467;-52
2022/01/30 03:37:41;;;;;;;21.65;3.85;;;5.40;99.90;;;;;;5075096;28;20516;-55
2022/01/30 03:40:07;;;;;;;19.10;3.15;;;5.30;99.90;;;;;;5093451;28;20028;-53
2022/01/30 03:42:33;;;;;;;23.80;3.78;;;5.30;99.90;;;;;;5075032;28;20433;-53
2022/01/30 03:44:58;;;;;;;23.38;3.60;;;5.20;99.90;;;;;;5093090;28;20044;-54
2022/01/30 03:47:26;;;;;;;21.10;4.80;;;5.20;99.90;;;;;;5093236;28;20042;-53
2022/01/30 03:49:52;;;;;;;28.65;4.20;;;5.20;99.90;;;;;;5093299;28;20120;-54
2022/01/30 03:52:18;;;;;;;24.60;3.60;;;5.20;99.90;;;;;;5093161;28;20089;-51
2022/01/30 03:54:44;;;;;;;24.27;4.00;;;5.20;99.90;;;;;;5093448;28;20031;-50
2022/01/30 03:57:09;;;;;;;28.75;4.55;;;5.10;99.90;;;;;;5092857;28;20155;-53
2022/01/30 03:59:35;;;;;;;28.80;5.18;;;5.10;99.90;;;;;;5092928;28;20036;-54
2022/01/30 04:02:02;;;;;;;29.05;3.92;;;5.10;99.90;;;;;;5092403;28;20119;-52
2022/01/30 04:04:28;;;;;;;29.13;4.60;;;5.10;99.90;;;;;;5093168;28;20534;-56
2022/01/30 04:06:57;;;;;;;32.75;4.78;;;5.10;99.90;;;;;;5092632;28;20048;-52
2022/01/30 04:09:24;;;;;;;29.05;4.78;;;5.20;99.90;;;;;;5074528;28;20052;-53
2022/01/30 04:11:49;;;;;;;28.58;4.97;;;5.30;99.90;;;;;;5092529;28;20024;-53
2022/01/30 04:14:15;;;;;;;37.15;5.57;;;5.30;99.90;;;;;;5092419;28;20036;-54
2022/01/30 04:16:41;;;;;;;28.35;5.22;;;5.30;99.90;;;;;;5092690;28;20089;-54
2022/01/30 04:19:07;;;;;;;32.88;5.35;;;5.30;99.90;;;;;;5092673;28;20034;-54
2022/01/30 04:21:33;;;;;;;38.80;6.75;;;5.30;99.90;;;;;;5092543;28;20148;-55
2022/01/30 04:23:59;;;;;;;27.50;5.30;;;5.30;99.90;;;;;;5092601;28;20133;-55
2022/01/30 04:26:24;;;;;;;36.97;6.40;;;5.30;99.90;;;;;;5092203;28;20032;-53
2022/01/30 04:28:50;;;;;;;29.38;5.03;;;5.30;99.90;;;;;;5092095;28;20058;-53
2022/01/30 04:31:16;;;;;;;33.13;5.05;;;5.20;99.90;;;;;;5056670;28;20093;-54
2022/01/30 04:33:42;;;;;;;34.22;5.70;;;5.20;99.90;;;;;;5091741;28;20028;-52
2022/01/30 04:36:12;;;;;;;35.88;5.05;;;5.10;99.90;;;;;;5092724;28;20083;-53
2022/01/30 04:39:26;;;;;;;33.05;5.45;;;5.10;99.90;;;;;;5090704;28;20475;-55
2022/01/30 04:42:01;;;;;;;36.50;5.40;;;5.10;99.90;;;;;;5087773;28;20044;-55
2022/01/30 05:00:48;;;;;;;31.98;6.43;;;5.00;99.90;;;;;;5081420;28;20119;-57
2022/01/30 05:06:04;;;;;;;32.15;5.47;;;5.10;99.90;;;;;;5090984;28;20032;-54
2022/01/30 05:08:30;;;;;;;34.67;5.57;;;5.00;99.90;;;;;;5090972;28;20171;-52
2022/01/30 05:10:56;;;;;;;29.23;5.22;;;5.10;99.90;;;;;;5091634;28;20481;-52
2022/01/30 05:13:27;;;;;;;32.90;5.90;;;5.10;99.90;;;;;;5091311;28;20043;-55
2022/01/30 05:15:53;;;;;;;30.02;5.63;;;5.10;99.90;;;;;;5091639;28;20089;-56
2022/01/30 05:18:24;;;;;;;35.83;6.55;;;5.10;99.90;;;;;;5091395;28;20043;-55
2022/01/30 05:20:50;;;;;;;25.65;5.10;;;5.10;99.90;;;;;;5091292;28;20040;-52
2022/01/30 05:23:16;;;;;;;37.33;5.70;;;5.10;99.90;;;;;;5091585;28;20046;-55
2022/01/30 05:25:45;;;;;;;35.40;5.15;;;5.00;99.90;;;;;;5091493;28;20047;-54
2022/01/30 05:28:11;;;;;;;34.95;5.05;;;5.00;99.90;;;;;;5091281;28;20039;-56
2022/01/30 05:30:37;;;;;;;35.53;5.22;;;5.00;99.90;;;;;;5090194;28;20032;-52
2022/01/30 05:33:03;;;;;;;34.83;5.63;;;4.90;99.90;;;;;;5091022;28;20032;-54
2022/01/30 05:35:29;;;;;;;33.00;5.50;;;4.90;99.90;;;;;;5072763;28;20048;-52
2022/01/30 05:37:55;;;;;;;33.40;5.80;;;4.80;99.90;;;;;;5091620;28;20043;-52
2022/01/30 05:40:22;;;;;;;33.88;5.43;;;4.80;99.90;;;;;;5090893;28;20390;-55
2022/01/30 05:42:48;;;;;;;41.35;5.70;;;4.80;99.90;;;;;;5072345;28;20499;-54
2022/01/30 05:47:46;;;;;;;42.42;5.95;;;4.70;99.90;;;;;;5090863;28;20036;-53
2022/01/30 05:50:13;;;;;;;33.42;6.20;;;4.70;99.90;;;;;;5089950;28;20387;-52
2022/01/30 05:52:39;;;;;;;42.83;6.72;;;4.70;99.90;;;;;;5091179;28;20036;-56
2022/01/30 05:55:05;;;;;;;33.83;6.50;;;4.70;99.90;;;;;;5091160;28;20139;-54
2022/01/30 05:57:31;;;;;;;43.17;6.35;;;4.70;99.90;;;;;;5090494;28;20046;-54
2022/01/30 05:59:57;;;;;;;38.83;6.50;;;4.70;99.90;;;;;;5091316;28;20040;-52
2022/01/30 06:02:22;;;;;;;41.50;5.85;;;4.70;99.90;;;;;;5090276;28;20101;-52
2022/01/30 06:04:48;;;;;;;36.65;6.40;;;4.70;99.90;;;;;;5090883;28;20032;-54
2022/01/30 06:07:14;;;;;;;40.28;5.55;;;4.70;99.90;;;;;;5091195;28;20368;-55
2022/01/30 06:09:39;;;;;;;41.58;6.07;;;4.60;99.90;;;;;;5090313;28;20083;-53
2022/01/30 06:12:06;;;;;;;40.00;5.90;;;4.60;99.90;;;;;;5090566;28;20452;-55
2022/01/30 06:14:31;;;;;;;38.78;6.28;;;4.60;99.90;;;;;;5090589;28;20036;-53
2022/01/30 06:16:57;;;;;;;42.42;6.53;;;4.60;99.90;;;;;;5090669;28;20055;-52
2022/01/30 06:19:23;;;;;;;46.80;6.93;;;4.60;99.90;;;;;;5090674;28;20032;-52
2022/01/30 06:21:49;;;;;;;40.00;7.03;;;4.60;99.90;;;;;;5091067;28;20071;-55
2022/01/30 06:24:15;;;;;;;35.50;5.40;;;4.60;99.90;;;;;;5090935;28;20511;-53
2022/01/30 06:26:41;;;;;;;32.70;5.40;;;4.60;99.90;;;;;;5072263;28;20039;-54
2022/01/30 06:29:06;;;;;;;34.90;6.05;;;4.60;99.90;;;;;;5091212;28;20032;-53
2022/01/30 06:31:32;;;;;;;37.28;5.28;;;4.50;99.90;;;;;;5088979;28;20111;-54
2022/01/30 06:33:58;;;;;;;39.13;5.65;;;4.60;99.90;;;;;;5090809;28;20100;-54
2022/01/30 06:36:24;;;;;;;31.45;5.30;;;4.60;99.90;;;;;;5090694;28;20032;-56
2022/01/30 06:38:51;;;;;;;42.05;7.47;;;4.60;99.90;;;;;;5072499;28;20079;-54
2022/01/30 06:41:17;;;;;;;34.40;6.25;;;4.70;99.90;;;;;;5090550;28;20054;-53
2022/01/30 06:43:43;;;;;;;36.05;5.85;;;4.70;99.90;;;;;;5090264;28;20040;-56
2022/01/30 06:46:11;;;;;;;35.90;6.40;;;4.70;99.90;;;;;;5090426;28;20036;-53
2022/01/30 06:48:37;;;;;;;38.15;6.55;;;4.80;99.90;;;;;;5090090;28;20051;-54
2022/01/30 06:51:04;;;;;;;32.85;5.70;;;4.80;99.90;;;;;;5090671;28;20475;-53
2022/01/30 06:53:30;;;;;;;41.63;6.53;;;4.80;99.90;;;;;;5091989;28;20035;-55
2022/01/30 06:55:56;;;;;;;47.35;6.03;;;4.80;99.90;;;;;;5094437;28;20044;-53
2022/01/30 06:58:22;;;;;;;35.53;5.75;;;4.80;99.90;;;;;;5094004;28;20044;-54
2022/01/30 07:00:48;;;;;;;46.15;7.75;;;4.80;99.90;;;;;;5094521;28;20495;-53
2022/01/30 07:03:13;;;;;;;39.40;6.00;;;4.80;99.90;;;;;;5093695;28;20032;-53
2022/01/30 07:05:39;;;;;;;44.63;6.50;;;4.80;99.90;;;;;;5093937;28;20545;-55
2022/01/30 07:08:05;;;;;;;42.83;6.28;;;4.80;99.90;;;;;;5093329;28;20052;-53
2022/01/30 07:10:30;;;;;;;42.33;6.43;;;4.90;99.90;;;;;;5093947;28;20092;-53
2022/01/30 07:12:56;;;;;;;48.03;7.03;;;4.90;99.90;;;;;;5093873;28;20101;-54
2022/01/30 07:15:22;;;;;;;44.78;6.43;;;4.90;99.90;;;;;;5093890;28;20066;-52
2022/01/30 07:17:48;;;;;;;38.65;6.25;;;4.90;99.90;;;;;;5093524;28;20138;-53
2022/01/30 07:20:14;;;;;;;44.97;6.07;;;4.90;99.90;;;;;;5094169;28;20063;-54
2022/01/30 07:22:40;;;;;;;42.50;6.45;;;5.00;99.90;;;;;;5093657;28;20032;-56
2022/01/30 07:25:07;;;;;;;37.15;5.63;;;5.00;99.90;;;;;;5075207;28;20040;-53
2022/01/30 07:27:35;;;;;;;41.00;6.05;;;5.00;99.90;;;;;;5093419;28;20119;-53
2022/01/30 07:30:00;;;;;;;35.50;5.95;;;5.00;99.90;;;;;;5093818;28;20040;-53
2022/01/30 07:32:26;;;;;;;50.60;7.40;;;5.00;99.90;;;;;;5093137;28;20088;-52
2022/01/30 07:34:52;;;;;;;35.72;5.88;;;5.10;99.90;;;;;;5093780;28;20032;-52
2022/01/30 07:37:19;;;;;;;36.28;6.40;;;5.00;99.90;;;;;;5093485;28;20058;-51
2022/01/30 07:39:45;;;;;;;44.72;7.88;;;5.00;99.90;;;;;;5093097;28;20169;-54
2022/01/30 07:42:11;;;;;;;51.13;7.20;;;5.10;99.90;;;;;;5093396;28;20036;-53
2022/01/30 07:44:37;;;;;;;49.15;7.78;;;5.10;99.90;;;;;;5074968;28;20118;-53
2022/01/30 07:47:03;;;;;;;40.50;6.32;;;5.10;99.90;;;;;;5093301;28;20058;-54
2022/01/30 07:49:29;;;;;;;36.72;6.93;;;5.20;99.90;;;;;;5093420;28;20471;-54
2022/01/30 07:51:55;;;;;;;38.10;7.32;;;5.20;99.90;;;;;;5093206;28;20103;-53
2022/01/30 07:54:21;;;;;;;46.05;5.95;;;5.20;99.90;;;;;;5093018;28;20055;-52
2022/01/30 07:56:47;;;;;;;47.90;6.97;;;5.30;99.90;;;;;;5093320;28;20060;-53
2022/01/30 07:59:13;;;;;;;38.90;6.93;;;5.30;99.90;;;;;;5074633;28;20432;-55
2022/01/30 08:01:38;;;;;;;43.97;7.10;;;5.30;99.90;;;;;;5089501;28;20036;-55
2022/01/30 08:04:07;;;;;;;41.30;7.32;;;5.40;99.90;;;;;;5092416;28;20162;-54
2022/01/30 08:06:33;;;;;;;40.67;6.28;;;5.50;99.90;;;;;;5092233;28;20036;-55
2022/01/30 08:08:59;;;;;;;32.65;6.20;;;5.50;99.90;;;;;;5091097;28;20044;-56
2022/01/30 08:11:24;;;;;;;46.67;7.03;;;5.60;99.90;;;;;;5092921;28;20597;-53
2022/01/30 08:13:50;;;;;;;47.20;6.30;;;5.50;99.90;;;;;;5092398;28;20475;-52
2022/01/30 08:16:16;;;;;;;43.40;7.20;;;5.50;99.90;;;;;;5056751;28;20139;-53
2022/01/30 08:18:41;;;;;;;43.70;6.38;;;5.50;99.90;;;;;;5092779;28;20040;-54
2022/01/30 08:21:07;;;;;;;40.38;7.80;;;5.50;99.90;;;;;;5092742;28;20036;-54
2022/01/30 08:23:33;;;;;;;36.05;6.45;;;5.50;99.90;;;;;;5092389;28;20038;-53
2022/01/30 08:26:00;;;;;;;38.50;6.22;;;5.50;99.90;;;;;;5092437;28;20044;-52
2022/01/30 08:28:26;;;;;;;40.30;6.60;;;5.50;99.90;;;;;;5092151;28;20039;-53
2022/01/30 08:30:52;;;;;;;37.40;7.45;;;5.50;99.90;;;;;;5092355;28;20032;-54
2022/01/30 08:33:18;;;;;;;41.50;6.82;;;5.60;99.90;;;;;;5091504;28;20508;-53
2022/01/30 08:35:44;;;;;;;43.65;7.40;;;5.50;99.90;;;;;;5083628;28;20032;-55
2022/01/30 08:38:12;;;;;;;37.97;6.30;;;5.60;99.90;;;;;;5089933;28;20044;-53
2022/01/30 08:40:38;;;;;;;50.05;7.60;;;5.60;99.90;;;;;;5091078;28;20040;-53
2022/01/30 08:43:04;;;;;;;40.17;6.95;;;5.60;99.90;;;;;;5088512;28;20048;-54
2022/01/30 08:45:30;;;;;;;47.70;7.65;;;5.50;99.90;;;;;;5091836;28;20089;-51
2022/01/30 08:47:55;;;;;;;47.58;7.53;;;5.50;99.90;;;;;;5086444;28;20087;-52
2022/01/30 08:50:22;;;;;;;52.25;8.43;;;5.50;99.90;;;;;;5084471;28;20070;-55
2022/01/30 08:52:49;;;;;;;35.55;7.30;;;5.50;99.90;;;;;;5084017;28;20024;-56
2022/01/30 08:55:16;;;;;;;49.67;7.07;;;5.60;99.90;;;;;;5084772;28;20463;-55
2022/01/30 08:57:42;;;;;;;48.13;7.80;;;5.50;99.90;;;;;;5082077;28;20581;-55
2022/01/30 09:00:11;;;;;;;45.58;7.63;;;5.50;99.90;;;;;;5083060;28;20123;-55
2022/01/30 09:02:37;;;;;;;44.10;6.28;;;5.50;99.90;;;;;;5082689;28;20035;-55
2022/01/30 09:05:04;;;;;;;39.38;7.45;;;5.40;99.90;;;;;;5084531;28;20450;-51
2022/01/30 09:07:29;;;;;;;47.33;8.23;;;5.40;99.90;;;;;;5082008;28;20143;-54
2022/01/30 09:09:55;;;;;;;47.13;7.45;;;5.40;99.90;;;;;;5050212;28;20091;-53
2022/01/30 09:12:21;;;;;;;44.47;7.38;;;5.40;99.90;;;;;;5055518;28;20044;-54
2022/01/30 09:14:46;;;;;;;40.20;6.80;;;5.40;99.90;;;;;;5056690;28;20503;-55
2022/01/30 09:17:14;;;;;;;41.78;7.05;;;5.40;99.90;;;;;;5057522;28;20043;-53
2022/01/30 09:19:44;;;;;;;45.10;6.55;;;5.50;99.90;;;;;;5058911;28;20123;-55
2022/01/30 09:22:11;;;;;;;47.60;7.95;;;5.50;99.90;;;;;;5059530;28;20380;-54
2022/01/30 09:24:38;;;;;;;39.15;6.80;;;5.70;99.90;;;;;;5061762;28;20544;-52
2022/01/30 09:27:05;;;;;;;42.17;7.47;;;5.60;99.90;;;;;;5060285;28;20029;-54
2022/01/30 09:29:33;;;;;;;38.25;6.45;;;5.60;99.90;;;;;;5061972;28;20080;-53
2022/01/30 09:32:00;;;;;;;41.10;6.35;;;5.70;99.90;;;;;;5060490;28;20547;-56
2022/01/30 09:34:26;;;;;;;43.60;6.85;;;5.70;99.90;;;;;;5060346;28;20093;-52
2022/01/30 09:36:52;;;;;;;40.22;6.95;;;5.80;99.90;;;;;;5060703;28;20032;-53
2022/01/30 09:39:18;;;;;;;40.25;7.03;;;5.80;99.90;;;;;;5062571;28;20105;-55
2022/01/30 09:41:45;;;;;;;44.25;7.20;;;5.90;99.90;;;;;;5062214;28;20371;-54
2022/01/30 09:44:11;;;;;;;38.53;6.60;;;6.00;99.90;;;;;;5061787;28;20555;-51
2022/01/30 09:46:39;;;;;;;40.88;6.93;;;6.00;99.90;;;;;;5062512;28;20113;-54
2022/01/30 09:49:07;;;;;;;45.33;6.57;;;6.10;99.90;;;;;;5062068;28;20051;-55
2022/01/30 09:51:34;;;;;;;44.13;7.20;;;6.20;99.90;;;;;;5059678;28;20107;-55
2022/01/30 09:54:02;;;;;;;33.10;5.95;;;6.20;99.90;;;;;;5058705;28;20553;-56
2022/01/30 09:56:27;;;;;;;43.15;6.07;;;6.20;99.90;;;;;;5058790;28;20039;-52
2022/01/30 09:58:53;;;;;;;39.58;6.57;;;6.20;99.90;;;;;;5057446;28;20029;-53
2022/01/30 10:01:19;;;;;;;37.85;6.60;;;6.30;99.90;;;;;;5058561;28;20076;-55
2022/01/30 10:03:47;;;;;;;38.97;6.10;;;6.30;99.90;;;;;;5059874;28;20052;-53
2022/01/30 10:06:18;;;;;;;41.35;6.15;;;6.30;99.90;;;;;;5058004;28;20044;-53
2022/01/30 10:08:47;;;;;;;38.03;5.78;;;6.30;99.90;;;;;;5059996;28;20056;-54
2022/01/30 10:11:28;;;;;;;40.88;6.28;;;6.30;99.90;;;;;;5079468;28;20098;-52
2022/01/30 10:14:06;;;;;;;35.17;6.70;;;6.30;99.90;;;;;;5080544;28;20032;-53
2022/01/30 10:16:35;;;;;;;36.28;6.18;;;6.40;99.90;;;;;;5079382;28;20032;-55
2022/01/30 10:19:09;;;;;;;37.10;6.20;;;6.50;99.90;;;;;;5076199;28;20071;-51
2022/01/30 10:21:34;;;;;;;;;;;6.60;99.90;;;;;;5059152;28;20418;-54
2022/01/30 10:24:16;;;;;;;34.08;5.90;;;6.70;99.90;;;;;;5077603;28;19916;-53
2022/01/30 10:26:41;;;;;;;41.30;7.63;;;6.80;99.90;;;;;;5079226;28;20089;-54
2022/01/30 10:29:18;;;;;;;37.75;6.63;;;6.80;99.90;;;;;;5082399;28;20080;-52
2022/01/30 10:32:06;;;;;;;40.53;6.82;;;6.80;99.90;;;;;;5085608;28;20032;-52
2022/01/30 10:34:37;;;;;;;40.75;6.55;;;6.70;99.90;;;;;;5086801;28;20044;-53
2022/01/30 10:37:19;;;;;;;30.98;6.03;;;6.70;99.90;;;;;;5086090;28;20402;-53
2022/01/30 10:39:56;;;;;;;45.38;6.55;;;6.80;99.90;;;;;;5085796;28;20025;-53
2022/01/30 10:42:30;;;;;;;38.38;6.40;;;6.80;99.90;;;;;;5085184;28;20556;-52
2022/01/30 10:44:56;;;;;;;43.17;6.82;;;6.80;99.90;;;;;;5085317;28;20040;-50
2022/01/30 10:47:22;;;;;;;38.72;6.95;;;6.70;99.90;;;;;;5086725;28;20040;-54
2022/01/30 10:49:48;;;;;;;39.80;6.50;;;6.70;99.90;;;;;;5085923;28;20089;-55
2022/01/30 10:52:14;;;;;;;40.47;6.20;;;6.80;99.90;;;;;;5084752;28;20052;-53
2022/01/30 10:54:40;;;;;;;41.25;7.53;;;6.90;99.90;;;;;;5084302;28;20055;-51
2022/01/30 10:57:12;;;;;;;34.67;6.30;;;7.20;99.90;;;;;;5085557;28;20454;-53
2022/01/30 10:59:43;;;;;;;35.50;6.75;;;7.40;99.90;;;;;;5084215;28;20422;-54
2022/01/30 11:02:18;;;;;;;41.75;6.85;;;7.70;99.90;;;;;;5083578;28;20039;-54
2022/01/30 11:04:47;;;;;;;40.85;7.68;;;7.70;99.90;;;;;;5084545;28;20114;-55
2022/01/30 11:07:19;;;;;;;41.75;6.97;;;7.80;99.90;;;;;;5084481;28;20040;-50
2022/01/30 11:09:56;;;;;;;42.67;6.50;;;7.80;99.90;;;;;;5083773;28;20064;-51
2022/01/30 11:12:33;;;;;;;41.58;6.82;;;8.00;99.90;;;;;;5083788;28;20040;-54
2022/01/30 11:15:16;;;;;;;35.72;6.40;;;8.00;99.90;;;;;;5084788;28;20498;-52
2022/01/30 11:17:43;;;;;;;36.85;7.38;;;8.10;99.90;;;;;;5083856;28;20589;-55
2022/01/30 11:20:13;;;;;;;41.33;6.78;;;8.10;99.90;;;;;;5084126;28;20114;-55
2022/01/30 11:22:41;;;;;;;36.10;6.65;;;8.10;99.90;;;;;;5078622;28;20134;-55
2022/01/30 11:25:12;;;;;;;34.00;6.82;;;8.20;99.90;;;;;;5083290;28;20040;-53
2022/01/30 11:27:42;;;;;;;47.35;6.97;;;8.10;99.90;;;;;;5082724;28;20036;-51
2022/01/30 11:30:09;;;;;;;40.08;6.03;;;8.10;99.90;;;;;;5083869;28;20032;-55
2022/01/30 11:32:35;;;;;;;44.55;6.43;;;8.20;99.90;;;;;;5083992;28;20105;-54
2022/01/30 11:35:01;;;;;;;36.70;6.32;;;8.30;99.90;;;;;;5082308;28;20028;-54
2022/01/30 11:37:29;;;;;;;35.75;5.72;;;8.20;99.90;;;;;;5084634;28;20479;-55
2022/01/30 11:39:55;;;;;;;36.08;6.85;;;8.10;99.90;;;;;;5081186;28;21368;-52
2022/01/30 11:42:23;;;;;;;43.10;6.88;;;8.00;99.90;;;;;;5083803;28;20445;-54
2022/01/30 11:45:03;;;;;;;34.75;6.38;;;7.90;99.90;;;;;;5064666;28;20066;-52
2022/01/30 11:47:42;;;;;;;33.40;4.95;;;7.70;99.90;;;;;;5083026;28;20441;-51
2022/01/30 11:50:09;;;;;;;36.83;6.30;;;7.60;99.90;;;;;;5083270;28;20036;-53
2022/01/30 11:52:55;;;;;;;34.42;6.18;;;7.50;99.90;;;;;;5065559;28;20471;-52
2022/01/30 11:55:50;;;;;;;33.83;7.20;;;7.30;99.90;;;;;;5080783;28;20037;-53
2022/01/30 11:58:37;;;;;;;;;;;7.20;99.90;;;;;;5083052;28;20112;-52
2022/01/30 12:01:25;;;;;;;32.63;5.53;;;7.10;99.90;;;;;;5081700;28;20614;-53
2022/01/30 12:03:53;;;;;;;34.20;6.03;;;7.00;99.90;;;;;;5077292;28;20051;-54
2022/01/30 12:06:19;;;;;;;38.95;6.75;;;7.30;99.90;;;;;;5080807;28;20039;-54
2022/01/30 12:08:48;;;;;;;34.72;7.00;;;7.40;99.90;;;;;;5079250;28;20063;-54
2022/01/30 12:11:49;;;;;;;39.97;6.15;;;7.70;99.90;;;;;;5081352;28;20056;-53
2022/01/30 12:14:20;;;;;;;33.60;5.60;;;7.70;99.90;;;;;;5081868;28;20143;-54
2022/01/30 12:16:57;;;;;;;36.55;5.90;;;7.60;99.90;;;;;;5082308;28;20038;-52
2022/01/30 12:19:45;;;;;;;34.95;5.35;;;7.40;99.90;;;;;;5082650;28;20051;-50
2022/01/30 12:22:16;;;;;;;28.38;5.18;;;7.30;99.90;;;;;;5083377;28;20102;-50
2022/01/30 12:24:51;;;;;;;30.52;5.30;;;7.40;99.90;;;;;;5082317;28;20039;-50
2022/01/30 12:27:17;;;;;;;32.38;5.40;;;7.70;99.90;;;;;;5083293;28;20503;-54
2022/01/30 12:29:47;;;;;;;33.60;5.40;;;8.00;99.90;;;;;;5082787;28;20123;-50
2022/01/30 12:32:28;;;;;;;32.50;5.28;;;8.00;99.90;;;;;;5081927;28;20032;-52
2022/01/30 12:34:56;;;;;;;29.30;5.55;;;8.00;99.90;;;;;;5083078;28;20058;-53
2022/01/30 12:37:28;;;;;;;27.98;5.55;;;7.90;99.90;;;;;;5080983;28;20044;-54
2022/01/30 12:39:54;;;;;;;30.80;5.20;;;7.80;99.90;;;;;;5083666;28;20542;-55
2022/01/30 12:42:22;;;;;;;43.30;8.82;;;7.60;99.90;;;;;;5084326;28;20079;-52
2022/01/30 12:44:48;;;;;;;38.38;8.68;;;7.60;99.90;;;;;;5089358;28;20110;-53
2022/01/30 12:47:15;;;;;;;35.65;8.07;;;7.60;99.90;;;;;;5089833;28;20127;-53
2022/01/30 12:49:48;;;;;;;35.10;6.28;;;7.70;99.90;;;;;;5072867;28;20118;-54
2022/01/30 12:52:30;;;;;;;39.58;6.15;;;8.10;99.90;;;;;;5090327;28;20391;-54
2022/01/30 12:54:59;;;;;;;37.38;6.43;;;8.10;99.90;;;;;;5092021;28;20115;-50
2022/01/30 12:57:26;;;;;;;35.35;6.22;;;8.30;99.90;;;;;;5092043;28;20565;-54
2022/01/30 12:59:54;;;;;;;43.08;7.03;;;8.50;99.90;;;;;;5091825;28;20072;-56
2022/01/30 13:02:20;;;;;;;41.72;6.65;;;8.60;99.90;;;;;;5091209;28;20032;-52
2022/01/30 13:04:46;;;;;;;38.60;6.20;;;8.60;99.90;;;;;;5091731;28;20066;-53
2022/01/30 13:07:13;;;;;;;36.70;6.72;;;8.70;99.90;;;;;;5091851;28;20036;-54
2022/01/30 13:09:39;;;;;;;40.15;6.72;;;8.80;99.90;;;;;;5091496;28;20130;-53
2022/01/30 13:12:16;;;;;;;32.47;6.22;;;8.80;99.90;;;;;;5091434;28;20063;-54
2022/01/30 13:14:42;;;;;;;31.25;6.38;;;9.00;98.80;;;;;;5091813;28;20043;-54
2022/01/30 13:17:12;;;;;;;37.40;6.50;;;9.00;99.90;;;;;;5091369;28;20040;-55
2022/01/30 13:19:42;;;;;;;38.92;6.90;;;9.10;99.90;;;;;;5091572;28;20097;-56
2022/01/30 13:22:10;;;;;;;30.30;6.20;;;9.10;99.90;;;;;;5090833;28;20118;-53
2022/01/30 13:24:38;;;;;;;36.47;6.72;;;9.20;99.90;;;;;;5091418;28;20101;-53
2022/01/30 13:27:06;;;;;;;39.13;6.72;;;9.20;99.90;;;;;;5090990;28;20522;-55
2022/01/30 13:29:34;;;;;;;39.60;6.88;;;9.10;99.90;;;;;;5090299;28;20067;-57
2022/01/30 13:32:06;;;;;;;36.80;6.20;;;9.00;99.90;;;;;;5090723;28;20036;-54
2022/01/30 13:34:33;;;;;;;36.85;6.53;;;8.90;99.90;;;;;;5091327;28;20487;-53
2022/01/30 13:37:11;;;;;;;40.10;6.70;;;8.90;99.90;;;;;;5091266;28;20413;-55
2022/01/30 13:48:16;;;;;;;36.13;6.18;;;8.70;98.40;;;;;;5090148;28;20036;-49
2022/01/30 13:51:02;;;;;;;37.05;5.63;;;8.60;97.80;;;;;;5091389;28;20028;-49
2022/01/30 13:53:29;;;;;;;31.08;5.88;;;8.50;99.90;;;;;;5088322;28;20028;-50
2022/01/30 13:55:57;;;;;;;35.80;6.50;;;8.60;99.90;;;;;;5090621;28;20058;-54